»·PEaware :: N55NT LFBT-EGLC

N55NT :: LFBT-EGLC

FLIGHT INFORMATION

Flight Status: Arrived
Operator: Privately registered:
United States
More flights under this callsign
Pilot: Craig H. (6968)
Aircraft: SOCATA TBM-900
(TBM9)
More flights by this aircraft type
Origin: LFBT Lourdes-Pyrenees
France
Destination: EGLC London City
United Kingdom
More flights between these airports :: More routes between these airports
Route: AGN1M AGN UN863 CNA UM184 TUPAR UN861 DIKRO UZ273 NEVIL NEVIL1C
File this flight plan on PilotEdge
Remarks:
Altitude:
(Current/Filed)
30,000ft
Speed:
(Current/Filed)
300kts
Departed: 04-Jan-20 10:59 AM
Arrived: 04-Jan-20 12:39 PM
Distance/Time
Traveled:
499nm/1:40
Distance/Time
To Go:
Arrived

Flight Plot

Page will automatically refresh every two minutes.

Flight plan parsing failed; only flown route is shown


Map Options




Map Legend


Flown Route
Filed Route
Departure Airport
Arrival Airport
Navaid (VOR, NDB)
Fix

Horizontal Profiles

Position Reports

Time Latitude Longitude Heading Altitude Ground
Speed
04-Jan-20 10:57 43.904973 0.847310 2 30638ft 305kts
04-Jan-20 10:58 43.985528 0.810006 335 30635ft 307kts
04-Jan-20 10:59 44.063088 0.759945 335 30638ft 307kts
04-Jan-20 11:00 44.140733 0.709640 335 30642ft 307kts
04-Jan-20 11:01 44.218573 0.659059 335 30643ft 307kts
04-Jan-20 11:02 44.296621 0.608189 335 30642ft 307kts
04-Jan-20 11:03 44.374615 0.557209 335 30642ft 307kts
04-Jan-20 11:04 44.452529 0.506111 335 30643ft 307kts
04-Jan-20 11:05 44.530333 0.454849 335 30643ft 308kts
04-Jan-20 11:06 44.608184 0.403400 335 30643ft 308kts
04-Jan-20 11:07 44.686008 0.351816 335 30642ft 308kts
04-Jan-20 11:08 44.763861 0.300060 334 30642ft 308kts
04-Jan-20 11:09 44.841876 0.248038 334 30642ft 308kts
04-Jan-20 11:10 44.919503 0.196121 334 30644ft 308kts
04-Jan-20 11:11 44.996993 0.143482 333 30647ft 308kts
04-Jan-20 11:12 45.074063 0.089829 334 30651ft 308kts
04-Jan-20 11:13 45.151808 0.037043 334 30654ft 308kts
04-Jan-20 11:14 45.229524 -0.015871 334 30655ft 308kts
04-Jan-20 11:15 45.306836 -0.068677 334 30657ft 308kts
04-Jan-20 11:16 45.384310 -0.121752 334 30659ft 308kts
04-Jan-20 11:17 45.461929 -0.175091 334 30661ft 308kts
04-Jan-20 11:18 45.539407 -0.228497 334 30665ft 308kts
04-Jan-20 11:19 45.617016 -0.282158 334 30668ft 308kts
04-Jan-20 11:20 45.696342 -0.328146 342 30671ft 307kts
04-Jan-20 11:21 45.778716 -0.365341 342 30669ft 307kts
04-Jan-20 11:22 45.860502 -0.402339 342 30669ft 308kts
04-Jan-20 11:23 45.942268 -0.439441 342 30669ft 308kts
04-Jan-20 11:24 46.024361 -0.476808 342 30669ft 308kts
04-Jan-20 11:25 46.106158 -0.514156 342 30669ft 308kts
04-Jan-20 11:26 46.188361 -0.551802 342 30670ft 308kts
04-Jan-20 11:27 46.269933 -0.589280 342 30670ft 308kts
04-Jan-20 11:28 46.351544 -0.626894 342 30670ft 308kts
04-Jan-20 11:29 46.433468 -0.663064 351 30652ft 308kts
04-Jan-20 11:30 46.518476 -0.677728 353 30669ft 307kts
04-Jan-20 11:31 46.603364 -0.691991 353 30669ft 307kts
04-Jan-20 11:32 46.688198 -0.706287 353 30669ft 307kts
04-Jan-20 11:33 46.773189 -0.720653 353 30674ft 307kts
04-Jan-20 11:34 46.857978 -0.735031 353 30676ft 307kts
04-Jan-20 11:35 46.942979 -0.749495 353 30676ft 307kts
04-Jan-20 11:36 47.028184 -0.764035 353 30678ft 307kts
04-Jan-20 11:37 47.111230 -0.778254 353 30679ft 307kts
04-Jan-20 11:38 47.197651 -0.793098 353 30673ft 308kts
04-Jan-20 11:39 47.282688 -0.807751 353 30677ft 307kts
04-Jan-20 11:40 47.367858 -0.822474 353 30686ft 307kts
04-Jan-20 11:41 47.452931 -0.837229 353 30684ft 307kts
04-Jan-20 11:42 47.537938 -0.851929 354 30681ft 307kts
04-Jan-20 11:43 47.623088 -0.862325 355 30679ft 307kts
04-Jan-20 11:44 47.708696 -0.872774 355 30677ft 307kts
04-Jan-20 11:45 47.793817 -0.883199 355 30675ft 307kts
04-Jan-20 11:46 47.879111 -0.893679 355 30673ft 307kts
04-Jan-20 11:47 47.964555 -0.904212 355 30671ft 307kts
04-Jan-20 11:48 48.049851 -0.914762 355 30670ft 307kts
04-Jan-20 11:49 48.135193 -0.925355 355 30671ft 307kts
04-Jan-20 11:50 48.220441 -0.935966 355 30672ft 307kts
04-Jan-20 11:51 48.305829 -0.946635 355 30673ft 307kts
04-Jan-20 11:52 48.391404 -0.957361 355 30673ft 307kts
04-Jan-20 11:53 48.476926 -0.968119 355 30671ft 308kts
04-Jan-20 11:54 48.562541 -0.978923 355 30670ft 308kts
04-Jan-20 11:55 48.648194 -0.989770 355 30664ft 308kts
04-Jan-20 11:56 48.733615 -1.000624 355 30660ft 308kts
04-Jan-20 11:57 48.818984 -1.011508 355 30656ft 308kts
04-Jan-20 11:58 48.904377 -1.022431 355 30653ft 308kts
04-Jan-20 11:59 48.990193 -1.033449 355 30649ft 308kts
04-Jan-20 12:01 49.075741 -1.044469 355 30648ft 308kts
04-Jan-20 12:02 49.160971 -1.055485 355 30648ft 308kts
04-Jan-20 12:03 49.246584 -1.066591 355 30646ft 308kts
04-Jan-20 12:04 49.332052 -1.077718 355 30646ft 308kts
04-Jan-20 12:05 49.417938 -1.088935 355 30645ft 308kts
04-Jan-20 12:06 49.503424 -1.100141 355 30645ft 308kts
04-Jan-20 12:07 49.587576 -1.087860 26 30634ft 307kts
04-Jan-20 12:08 49.646730 -0.993655 50 30641ft 307kts
04-Jan-20 12:09 49.700977 -0.890766 50 30639ft 307kts
04-Jan-20 12:10 49.755021 -0.787841 50 30636ft 307kts
04-Jan-20 12:11 49.820781 -0.706247 19 30640ft 307kts
04-Jan-20 12:12 49.901939 -0.662164 18 30225ft 312kts
04-Jan-20 12:13 49.980291 -0.620154 18 28733ft 310kts
04-Jan-20 12:14 50.060749 -0.576850 18 27648ft 299kts
04-Jan-20 12:15 50.141715 -0.533126 18 25963ft 302kts
04-Jan-20 12:16 50.219308 -0.491044 18 25440ft 295kts
04-Jan-20 12:17 50.297475 -0.448537 18 24276ft 314kts
04-Jan-20 12:17 50.367877 -0.410126 18 22254ft 320kts
04-Jan-20 12:19 50.461566 -0.358779 18 21037ft 284kts
04-Jan-20 12:20 50.537718 -0.316905 19 20113ft 305kts
04-Jan-20 12:20 50.605707 -0.279419 19 18161ft 310kts
04-Jan-20 12:21 50.683312 -0.236449 19 17428ft 278kts
04-Jan-20 12:23 50.769539 -0.188550 19 16061ft 296kts
04-Jan-20 12:23 50.830966 -0.154313 19 15333ft 264kts
04-Jan-20 12:24 50.904284 -0.113390 18 13763ft 295kts
04-Jan-20 12:26 50.993226 -0.063404 19 12027ft 262kts
04-Jan-20 12:26 51.052328 -0.030126 19 11006ft 275kts
04-Jan-20 12:27 51.126712 0.011876 19 9124ft 282kts
04-Jan-20 12:28 51.199845 0.053329 19 7737ft 271kts
04-Jan-20 12:29 51.270857 0.093050 18 6767ft 262kts
04-Jan-20 12:30 51.332371 0.156383 39 5205ft 266kts
04-Jan-20 12:31 51.387553 0.231408 39 3403ft 234kts
04-Jan-20 12:32 51.438328 0.268364 359 1970ft 181kts
04-Jan-20 12:33 51.488316 0.252667 329 1990ft 189kts
04-Jan-20 12:34 51.501270 0.182640 273 2069ft 143kts
04-Jan-20 12:35 51.502895 0.129565 274 1477ft 92kts
04-Jan-20 12:36 51.504134 0.090946 274 618ft 83kts
04-Jan-20 12:37 51.505163 0.057334 272 16ft 42kts
04-Jan-20 12:38 51.504767 0.049102 175 15ft 0kts
04-Jan-20 12:39 51.504670 0.048675 273 14ft 7kts
04-Jan-20 12:40 51.504943 0.043630 280 13ft 12kts
04-Jan-20 12:41 51.505095 0.040555 80 13ft 0kts
04-Jan-20 12:42 51.505095 0.040555 80 13ft 0kts

Navigation Log

Ident Type
Flight plan parsing failed, navigation log unavailable